Time;durP1;ratioP1;P1;durP2;ratioP2;P2;SDS_P1;SDS_P2;PMS_P1;PMS_P2;Temp;Humidity;BMP_temperature;BMP_pressure;BME280_temperature;BME280_humidity;BME280_pressure;Samples;Min_cycle;Max_cycle;Signal;HPM_P1;HPM_P2
2021/09/13 00:01:36;;;;;;;6.00;2.47;;;;;;;;;;5037104;28;20748;-73
2021/09/13 00:04:04;;;;;;;3.43;2.67;;;;;;;;;;5036998;28;20509;-73
2021/09/13 00:06:33;;;;;;;2.90;1.67;;;;;;;;;;5037124;28;20454;-73
2021/09/13 00:09:04;;;;;;;4.00;1.77;;;;;;;;;;5037130;28;20553;-73
2021/09/13 00:11:31;;;;;;;2.40;2.00;;;;;;;;;;5036018;28;20460;-73
2021/09/13 00:13:59;;;;;;;4.87;2.07;;;;;;;;;;5036874;28;20462;-73
2021/09/13 00:16:27;;;;;;;7.70;2.20;;;;;;;;;;5036755;28;20473;-73
2021/09/13 00:18:57;;;;;;;3.70;1.90;;;;;;;;;;5036398;28;20804;-73
2021/09/13 00:21:25;;;;;;;3.20;2.30;;;;;;;;;;5036147;28;20454;-73
2021/09/13 00:23:54;;;;;;;3.00;1.50;;;;;;;;;;5036649;28;20554;-73
2021/09/13 00:26:22;;;;;;;5.07;2.40;;;;;;;;;;5036977;28;20466;-73
2021/09/13 00:28:50;;;;;;;5.23;2.50;;;;;;;;;;5035656;28;20547;-73
2021/09/13 00:31:18;;;;;;;4.10;1.77;;;;;;;;;;5036825;28;20941;-73
2021/09/13 00:33:46;;;;;;;4.63;1.90;;;;;;;;;;5036450;28;20477;-73
2021/09/13 00:36:13;;;;;;;6.70;1.80;;;;;;;;;;5036718;28;20894;-73
2021/09/13 00:38:41;;;;;;;4.73;2.10;;;;;;;;;;5036324;28;20524;-73
2021/09/13 00:41:10;;;;;;;11.73;2.60;;;;;;;;;;5036488;28;20466;-73
2021/09/13 00:43:38;;;;;;;5.37;2.00;;;;;;;;;;5036486;28;20485;-73
2021/09/13 00:46:06;;;;;;;3.00;1.37;;;;;;;;;;5036705;28;20489;-73
2021/09/13 00:48:33;;;;;;;3.70;2.43;;;;;;;;;;5036749;28;21026;-73
2021/09/13 00:51:01;;;;;;;5.40;1.70;;;;;;;;;;5036691;28;20466;-73
2021/09/13 00:53:31;;;;;;;5.80;1.97;;;;;;;;;;5036409;28;20873;-73
2021/09/13 00:55:59;;;;;;;3.00;1.93;;;;;;;;;;5036374;28;20870;-73
2021/09/13 00:58:29;;;;;;;5.17;2.33;;;;;;;;;;5036468;28;20530;-73
2021/09/13 01:00:57;;;;;;;3.37;2.10;;;;;;;;;;5035611;28;20462;-73
2021/09/13 01:03:25;;;;;;;6.37;1.50;;;;;;;;;;5036732;28;20532;-73
2021/09/13 01:05:52;;;;;;;3.47;1.87;;;;;;;;;;5036453;28;20490;-73
2021/09/13 01:08:20;;;;;;;6.23;1.83;;;;;;;;;;5036183;28;20465;-73
2021/09/13 01:10:48;;;;;;;2.70;1.80;;;;;;;;;;5036608;28;20465;-73
2021/09/13 01:13:16;;;;;;;6.53;2.20;;;;;;;;;;5036712;28;20506;-73
2021/09/13 01:15:45;;;;;;;4.23;1.93;;;;;;;;;;5036613;28;20531;-73
2021/09/13 01:18:13;;;;;;;2.63;1.70;;;;;;;;;;5036570;28;20874;-73
2021/09/13 01:20:40;;;;;;;3.00;1.93;;;;;;;;;;5036233;28;20524;-73
2021/09/13 01:23:09;;;;;;;3.20;1.57;;;;;;;;;;5036113;28;20462;-73
2021/09/13 01:25:39;;;;;;;5.57;1.90;;;;;;;;;;5036424;28;20450;-73
2021/09/13 01:28:07;;;;;;;5.93;2.30;;;;;;;;;;5036345;28;20494;-73
2021/09/13 01:30:34;;;;;;;3.20;1.70;;;;;;;;;;5037440;28;20527;-73
2021/09/13 01:33:02;;;;;;;6.40;2.23;;;;;;;;;;5039502;28;20473;-73
2021/09/13 01:35:31;;;;;;;7.37;1.70;;;;;;;;;;5039650;28;20545;-73
2021/09/13 01:37:59;;;;;;;4.10;2.10;;;;;;;;;;5039618;28;20881;-73
2021/09/13 01:40:28;;;;;;;4.93;2.33;;;;;;;;;;5039271;28;20538;-73
2021/09/13 01:43:00;;;;;;;4.80;1.90;;;;;;;;;;5039548;28;20566;-73
2021/09/13 01:45:28;;;;;;;5.10;1.93;;;;;;;;;;5039824;28;20458;-73
2021/09/13 01:47:56;;;;;;;7.57;2.10;;;;;;;;;;5039513;28;20466;-73
2021/09/13 01:50:24;;;;;;;9.23;2.37;;;;;;;;;;5039369;28;20465;-72
2021/09/13 01:52:51;;;;;;;4.33;2.17;;;;;;;;;;5038640;28;21072;-72
2021/09/13 01:55:19;;;;;;;4.07;1.83;;;;;;;;;;5039147;28;20917;-72
2021/09/13 01:57:47;;;;;;;4.73;2.20;;;;;;;;;;5039307;28;20462;-72
2021/09/13 02:00:20;;;;;;;5.73;2.87;;;;;;;;;;5038409;28;20532;-73
2021/09/13 02:02:47;;;;;;;2.30;1.83;;;;;;;;;;5038505;28;20823;-72
2021/09/13 02:05:15;;;;;;;2.10;1.57;;;;;;;;;;5039055;28;20914;-73
2021/09/13 02:07:42;;;;;;;3.63;1.93;;;;;;;;;;5038757;28;20462;-72
2021/09/13 02:10:10;;;;;;;6.00;2.50;;;;;;;;;;5039030;28;20454;-73
2021/09/13 02:12:38;;;;;;;7.23;2.43;;;;;;;;;;5039051;28;20459;-72
2021/09/13 02:15:06;;;;;;;10.27;3.87;;;;;;;;;;5039090;28;20462;-72
2021/09/13 02:17:35;;;;;;;4.40;2.40;;;;;;;;;;5039037;28;21073;-72
2021/09/13 02:20:03;;;;;;;6.50;2.40;;;;;;;;;;5038943;28;20541;-72
2021/09/13 02:22:31;;;;;;;4.03;2.07;;;;;;;;;;5038832;28;20528;-73
2021/09/13 02:24:59;;;;;;;5.03;2.30;;;;;;;;;;5038565;28;20926;-72
2021/09/13 02:27:26;;;;;;;5.03;2.47;;;;;;;;;;5039059;28;20462;-72
2021/09/13 02:29:54;;;;;;;7.10;2.63;;;;;;;;;;5038732;28;20454;-72
2021/09/13 02:32:21;;;;;;;5.27;2.60;;;;;;;;;;5038344;28;20493;-72
2021/09/13 02:34:51;;;;;;;3.37;2.70;;;;;;;;;;5038239;28;20537;-72
2021/09/13 02:37:18;;;;;;;5.57;2.70;;;;;;;;;;5038334;28;20446;-72
2021/09/13 02:39:46;;;;;;;5.07;2.23;;;;;;;;;;5038424;28;20572;-72
2021/09/13 02:42:14;;;;;;;5.47;3.73;;;;;;;;;;5036942;28;20745;-72
2021/09/13 02:44:41;;;;;;;7.07;3.80;;;;;;;;;;5038048;28;20556;-73
2021/09/13 02:47:09;;;;;;;6.53;3.10;;;;;;;;;;5037587;28;20462;-72
2021/09/13 02:49:36;;;;;;;3.97;3.57;;;;;;;;;;5037907;28;20846;-72
2021/09/13 02:52:06;;;;;;;5.00;3.07;;;;;;;;;;5038133;28;20468;-72
2021/09/13 02:54:33;;;;;;;5.17;3.70;;;;;;;;;;5038073;28;20454;-72
2021/09/13 02:57:01;;;;;;;10.47;4.00;;;;;;;;;;5037862;28;20462;-72
2021/09/13 02:59:31;;;;;;;5.97;4.03;;;;;;;;;;5037727;28;20469;-72
2021/09/13 03:01:59;;;;;;;6.70;4.10;;;;;;;;;;5037882;28;20863;-72
2021/09/13 03:04:27;;;;;;;8.50;6.13;;;;;;;;;;5037509;28;20494;-72
2021/09/13 03:06:54;;;;;;;8.07;4.70;;;;;;;;;;5037663;28;20458;-72
2021/09/13 03:09:23;;;;;;;5.80;4.50;;;;;;;;;;5037889;28;20458;-72
2021/09/13 03:11:51;;;;;;;10.60;5.53;;;;;;;;;;5037879;28;20720;-72
2021/09/13 03:14:19;;;;;;;5.33;4.60;;;;;;;;;;5037523;28;20873;-74
2021/09/13 03:16:47;;;;;;;6.37;5.23;;;;;;;;;;5037614;28;20469;-73
2021/09/13 03:19:15;;;;;;;13.13;8.93;;;;;;;;;;5037300;28;21086;-73
2021/09/13 03:21:44;;;;;;;11.10;4.80;;;;;;;;;;5037373;28;20457;-73
2021/09/13 03:24:12;;;;;;;9.60;5.60;;;;;;;;;;5037386;28;20494;-72
2021/09/13 03:26:44;;;;;;;7.50;5.23;;;;;;;;;;5037158;28;20468;-73
2021/09/13 03:29:12;;;;;;;6.13;5.10;;;;;;;;;;5037432;28;20462;-72
2021/09/13 03:31:40;;;;;;;5.60;4.93;;;;;;;;;;5038830;28;20463;-72
2021/09/13 03:34:09;;;;;;;7.57;5.17;;;;;;;;;;5040223;28;20933;-72
2021/09/13 03:36:39;;;;;;;10.83;4.83;;;;;;;;;;5036946;28;20944;-72
2021/09/13 03:39:07;;;;;;;6.53;4.60;;;;;;;;;;5036991;28;20466;-73
2021/09/13 03:41:36;;;;;;;10.10;4.80;;;;;;;;;;5037460;28;20465;-73
2021/09/13 03:44:06;;;;;;;10.07;5.83;;;;;;;;;;5036916;28;20486;-73
2021/09/13 03:46:34;;;;;;;8.77;4.90;;;;;;;;;;5036845;28;20557;-73
2021/09/13 03:49:05;;;;;;;7.63;5.97;;;;;;;;;;5037116;28;20466;-73
2021/09/13 03:51:34;;;;;;;12.20;6.10;;;;;;;;;;5035548;28;20447;-73
2021/09/13 03:54:02;;;;;;;8.43;5.40;;;;;;;;;;5036130;28;20804;-74
2021/09/13 03:56:29;;;;;;;7.50;5.37;;;;;;;;;;5036082;28;20468;-73
2021/09/13 03:58:57;;;;;;;7.87;5.67;;;;;;;;;;5037484;28;20498;-73
2021/09/13 04:01:26;;;;;;;11.77;5.70;;;;;;;;;;5036121;28;20459;-73
2021/09/13 04:03:57;;;;;;;7.67;6.87;;;;;;;;;;5035656;28;20969;-72
2021/09/13 04:06:27;;;;;;;5.37;4.70;;;;;;;;;;5036571;28;20458;-72
2021/09/13 04:11:53;;;;;;;10.37;6.10;;;;;;;;;;4955605;28;20438;-72
2021/09/13 04:14:23;;;;;;;11.10;6.53;;;;;;;;;;5036422;28;20466;-73
2021/09/13 04:16:52;;;;;;;7.77;6.47;;;;;;;;;;5036597;28;20462;-72
2021/09/13 04:19:22;;;;;;;11.07;6.37;;;;;;;;;;5035955;28;20917;-72
2021/09/13 04:21:49;;;;;;;11.57;5.97;;;;;;;;;;5036452;28;20482;-72
2021/09/13 04:24:26;;;;;;;10.83;6.40;;;;;;;;;;5036694;28;20482;-72
2021/09/13 04:26:54;;;;;;;9.63;6.47;;;;;;;;;;5036032;28;20455;-72
2021/09/13 04:29:22;;;;;;;11.30;7.10;;;;;;;;;;5036563;28;20474;-71
2021/09/13 04:31:50;;;;;;;6.70;5.80;;;;;;;;;;5036433;28;20454;-71
2021/09/13 04:34:22;;;;;;;8.50;6.30;;;;;;;;;;5035813;28;20462;-72
2021/09/13 04:36:50;;;;;;;12.10;6.90;;;;;;;;;;5036264;28;20465;-71
2021/09/13 04:39:17;;;;;;;11.30;6.97;;;;;;;;;;5035382;28;20482;-71
2021/09/13 04:41:45;;;;;;;9.20;6.10;;;;;;;;;;5036246;28;20528;-72
2021/09/13 04:44:16;;;;;;;10.50;7.20;;;;;;;;;;5035459;28;20450;-72
2021/09/13 04:46:43;;;;;;;12.60;6.30;;;;;;;;;;5036208;28;20489;-72
2021/09/13 04:49:11;;;;;;;8.53;6.70;;;;;;;;;;5036284;28;20465;-72
2021/09/13 04:51:40;;;;;;;9.43;7.60;;;;;;;;;;5036353;28;20549;-73
2021/09/13 04:54:08;;;;;;;9.13;7.10;;;;;;;;;;5035727;28;20520;-73
2021/09/13 04:56:36;;;;;;;8.80;7.73;;;;;;;;;;5036069;28;20466;-72
2021/09/13 04:59:03;;;;;;;12.40;6.57;;;;;;;;;;5035611;28;20854;-72
2021/09/13 05:01:31;;;;;;;7.10;6.40;;;;;;;;;;5035007;28;20477;-73
2021/09/13 05:03:59;;;;;;;8.10;6.40;;;;;;;;;;5035089;28;20462;-72
2021/09/13 05:06:27;;;;;;;8.90;7.27;;;;;;;;;;5038435;28;20493;-73
2021/09/13 05:08:59;;;;;;;12.23;6.90;;;;;;;;;;5037980;28;20465;-73
2021/09/13 05:11:27;;;;;;;7.50;5.97;;;;;;;;;;5037541;28;20596;-73
2021/09/13 05:13:58;;;;;;;10.70;7.23;;;;;;;;;;5037419;28;20476;-73
2021/09/13 05:16:27;;;;;;;9.63;7.00;;;;;;;;;;5039174;28;20524;-73
2021/09/13 05:18:54;;;;;;;11.73;7.13;;;;;;;;;;5036646;28;20484;-72
2021/09/13 05:21:22;;;;;;;10.13;8.23;;;;;;;;;;5036856;28;20854;-72
2021/09/13 05:23:50;;;;;;;8.10;6.40;;;;;;;;;;5037514;28;20446;-72
2021/09/13 05:26:19;;;;;;;16.10;7.50;;;;;;;;;;5036016;28;20497;-72
2021/09/13 05:28:47;;;;;;;8.37;6.47;;;;;;;;;;5036982;28;20497;-72
2021/09/13 05:31:15;;;;;;;9.27;5.93;;;;;;;;;;5034692;28;20458;-72
2021/09/13 05:33:43;;;;;;;13.20;7.17;;;;;;;;;;5035906;28;20466;-72
2021/09/13 05:36:10;;;;;;;11.97;6.90;;;;;;;;;;5036572;28;20766;-72
2021/09/13 05:38:38;;;;;;;8.40;6.10;;;;;;;;;;5036802;28;20446;-73
2021/09/13 05:41:06;;;;;;;7.10;5.47;;;;;;;;;;5036594;28;20470;-72
2021/09/13 05:43:35;;;;;;;9.23;6.97;;;;;;;;;;5045203;28;20464;-72
2021/09/13 05:46:05;;;;;;;8.00;5.27;;;;;;;;;;5056532;28;21004;-72
2021/09/13 05:48:33;;;;;;;12.37;6.17;;;;;;;;;;5056210;28;20469;-72
2021/09/13 05:51:01;;;;;;;9.83;6.80;;;;;;;;;;5056442;28;20461;-72
2021/09/13 05:53:29;;;;;;;6.43;4.43;;;;;;;;;;5056546;28;21003;-72
2021/09/13 05:55:57;;;;;;;7.60;5.40;;;;;;;;;;5047744;28;20867;-72
2021/09/13 05:58:27;;;;;;;7.80;4.83;;;;;;;;;;5036460;28;20824;-72
2021/09/13 06:00:57;;;;;;;10.60;5.63;;;;;;;;;;5036927;28;20516;-72
2021/09/13 06:03:25;;;;;;;10.63;4.90;;;;;;;;;;5037218;28;20854;-72
2021/09/13 06:05:56;;;;;;;12.00;4.97;;;;;;;;;;5040951;28;20492;-73
2021/09/13 06:08:24;;;;;;;9.00;5.90;;;;;;;;;;5043018;28;20474;-73
2021/09/13 06:10:51;;;;;;;5.60;4.77;;;;;;;;;;5054702;28;20519;-73
2021/09/13 06:13:19;;;;;;;10.53;5.23;;;;;;;;;;5053103;28;20883;-74
2021/09/13 06:15:47;;;;;;;7.97;5.90;;;;;;;;;;5046411;28;20458;-72
2021/09/13 06:18:16;;;;;;;8.50;5.07;;;;;;;;;;5055679;28;20457;-73
2021/09/13 06:20:45;;;;;;;8.73;6.13;;;;;;;;;;5051132;28;20504;-72
2021/09/13 06:23:12;;;;;;;10.60;5.73;;;;;;;;;;5036294;28;20578;-73
2021/09/13 06:25:40;;;;;;;9.03;4.63;;;;;;;;;;5036134;28;20497;-72
2021/09/13 06:28:09;;;;;;;5.90;4.80;;;;;;;;;;5043244;28;20897;-73
2021/09/13 06:30:37;;;;;;;7.17;5.93;;;;;;;;;;5036750;28;20456;-71
2021/09/13 06:33:05;;;;;;;6.27;5.03;;;;;;;;;;5036347;28;20454;-71
2021/09/13 06:35:34;;;;;;;7.90;4.70;;;;;;;;;;5037304;28;20473;-71
2021/09/13 06:38:02;;;;;;;5.47;4.33;;;;;;;;;;5041148;28;20469;-72
2021/09/13 06:40:30;;;;;;;7.70;4.30;;;;;;;;;;5038143;28;20462;-72
2021/09/13 06:42:58;;;;;;;6.80;5.33;;;;;;;;;;5044209;28;20550;-71
2021/09/13 06:45:28;;;;;;;6.17;4.70;;;;;;;;;;5046581;28;20481;-72
2021/09/13 06:47:59;;;;;;;7.30;5.27;;;;;;;;;;5063507;28;20469;-73
2021/09/13 06:50:34;;;;;;;9.13;4.80;;;;;;;;;;5076524;28;20482;-71
2021/09/13 06:53:03;;;;;;;7.50;4.13;;;;;;;;;;5074153;28;20471;-73
2021/09/13 06:55:38;;;;;;;8.90;4.60;;;;;;;;;;5061249;28;20453;-72
2021/09/13 06:58:07;;;;;;;7.00;4.57;;;;;;;;;;5049398;28;20492;-72
2021/09/13 07:00:36;;;;;;;6.77;4.73;;;;;;;;;;5053308;28;21042;-72
2021/09/13 07:03:04;;;;;;;10.97;5.40;;;;;;;;;;5040848;28;20460;-71
2021/09/13 07:05:38;;;;;;;7.43;4.07;;;;;;;;;;5052063;28;20531;-71
2021/09/13 07:08:09;;;;;;;4.13;3.40;;;;;;;;;;5035483;28;20458;-72
2021/09/13 07:10:50;;;;;;;5.97;4.60;;;;;;;;;;5036665;28;20461;-74
2021/09/13 07:13:20;;;;;;;15.63;10.20;;;;;;;;;;5036216;28;20457;-73
2021/09/13 07:15:49;;;;;;;4.93;3.60;;;;;;;;;;5035135;28;20474;-71
2021/09/13 07:18:20;;;;;;;12.23;5.53;;;;;;;;;;5035228;28;20462;-72
2021/09/13 07:20:51;;;;;;;11.80;3.87;;;;;;;;;;5043882;28;20978;-72
2021/09/13 07:23:24;;;;;;;10.83;4.47;;;;;;;;;;5045449;28;20756;-73
2021/09/13 07:26:01;;;;;;;7.93;4.30;;;;;;;;;;5035679;28;20493;-71
2021/09/13 07:28:32;;;;;;;5.13;2.90;;;;;;;;;;5034814;28;20458;-71
2021/09/13 07:31:03;;;;;;;7.90;3.87;;;;;;;;;;5035280;28;20561;-71
2021/09/13 07:33:35;;;;;;;6.50;4.57;;;;;;;;;;5035937;28;20458;-71
2021/09/13 07:36:03;;;;;;;6.77;3.73;;;;;;;;;;5035054;28;20469;-71
2021/09/13 07:38:41;;;;;;;9.13;3.00;;;;;;;;;;5035699;28;20462;-71
2021/09/13 07:41:09;;;;;;;6.00;3.00;;;;;;;;;;5034271;28;20862;-71
2021/09/13 07:43:37;;;;;;;8.93;3.43;;;;;;;;;;5034852;28;20810;-72
2021/09/13 07:46:05;;;;;;;10.30;3.07;;;;;;;;;;5034327;28;20514;-71
2021/09/13 07:48:33;;;;;;;6.13;3.30;;;;;;;;;;5035235;28;20458;-72
2021/09/13 07:51:03;;;;;;;4.33;1.97;;;;;;;;;;5036924;28;20859;-71
2021/09/13 07:53:34;;;;;;;2.33;1.93;;;;;;;;;;5057070;28;20464;-70
2021/09/13 07:56:06;;;;;;;8.23;3.10;;;;;;;;;;5055005;28;20875;-71
2021/09/13 07:58:39;;;;;;;10.17;2.90;;;;;;;;;;5055367;28;20533;-71
2021/09/13 08:01:06;;;;;;;6.60;2.63;;;;;;;;;;5055176;28;21256;-70
2021/09/13 08:03:34;;;;;;;7.90;2.00;;;;;;;;;;5054283;28;20530;-72
2021/09/13 08:06:03;;;;;;;5.57;2.00;;;;;;;;;;5040480;28;20782;-71
2021/09/13 08:08:32;;;;;;;5.13;1.80;;;;;;;;;;5052620;28;20457;-71
2021/09/13 08:11:00;;;;;;;6.83;2.13;;;;;;;;;;5051144;28;20929;-71
2021/09/13 08:13:39;;;;;;;3.73;1.93;;;;;;;;;;5039351;28;20465;-71
2021/09/13 08:16:11;;;;;;;4.63;2.80;;;;;;;;;;5046646;28;20461;-70
2021/09/13 08:18:39;;;;;;;4.47;2.20;;;;;;;;;;5045583;28;20693;-72
2021/09/13 08:21:08;;;;;;;4.90;2.13;;;;;;;;;;5038042;28;20473;-71
2021/09/13 08:23:36;;;;;;;6.27;2.70;;;;;;;;;;5037350;28;20905;-71
2021/09/13 08:26:04;;;;;;;5.57;1.60;;;;;;;;;;5040853;28;20492;-72
2021/09/13 08:28:35;;;;;;;5.43;1.63;;;;;;;;;;5036577;28;20454;-72
2021/09/13 08:31:03;;;;;;;4.90;1.87;;;;;;;;;;5035393;28;20462;-72
2021/09/13 08:33:31;;;;;;;4.00;1.70;;;;;;;;;;5035005;28;20454;-72
2021/09/13 08:36:01;;;;;;;2.57;1.60;;;;;;;;;;5041123;28;20478;-73
2021/09/13 08:38:29;;;;;;;6.23;1.87;;;;;;;;;;5034145;28;20862;-72
2021/09/13 08:40:59;;;;;;;2.80;1.93;;;;;;;;;;5038239;28;20811;-72
2021/09/13 08:43:35;;;;;;;5.17;1.73;;;;;;;;;;5048358;28;20825;-71
2021/09/13 08:46:19;;;;;;;2.70;2.07;;;;;;;;;;5058682;28;20498;-72
2021/09/13 08:48:54;;;;;;;3.87;2.10;;;;;;;;;;5046554;28;20446;-71
2021/09/13 08:51:34;;;;;;;3.50;1.50;;;;;;;;;;5038654;28;20921;-72
2021/09/13 08:54:05;;;;;;;2.60;1.47;;;;;;;;;;5039828;28;20454;-72
2021/09/13 08:56:40;;;;;;;3.10;1.17;;;;;;;;;;5039880;28;20540;-71
2021/09/13 08:59:22;;;;;;;4.70;1.87;;;;;;;;;;5043913;28;20542;-73
2021/09/13 09:02:10;;;;;;;3.37;1.37;;;;;;;;;;5038780;28;20458;-71
2021/09/13 09:04:55;;;;;;;4.17;1.60;;;;;;;;;;5009283;28;20473;-72
2021/09/13 09:07:30;;;;;;;2.73;1.50;;;;;;;;;;5048565;28;20488;-73
2021/09/13 09:10:25;;;;;;;1.77;1.30;;;;;;;;;;5043880;28;20457;-71
2021/09/13 09:12:57;;;;;;;3.63;1.10;;;;;;;;;;5034083;28;20486;-71
2021/09/13 09:15:25;;;;;;;7.13;2.13;;;;;;;;;;5042911;28;20450;-70
2021/09/13 09:17:57;;;;;;;3.30;1.23;;;;;;;;;;5051993;28;20472;-70
2021/09/13 09:20:35;;;;;;;6.30;2.00;;;;;;;;;;5048129;28;20445;-72
2021/09/13 09:26:12;;;;;;;10.13;1.23;;;;;;;;;;5043560;28;20482;-71
2021/09/13 09:28:59;;;;;;;3.83;1.37;;;;;;;;;;5044083;28;20510;-71
2021/09/13 09:31:44;;;;;;;4.37;1.20;;;;;;;;;;5052154;28;20873;-72
2021/09/13 09:34:17;;;;;;;10.77;2.93;;;;;;;;;;5048948;28;20462;-71
2021/09/13 09:37:07;;;;;;;7.63;1.37;;;;;;;;;;5042197;28;20954;-71
2021/09/13 09:39:47;;;;;;;2.90;1.93;;;;;;;;;;5047322;28;20462;-72
2021/09/13 09:42:42;;;;;;;3.27;1.67;;;;;;;;;;5041852;28;20879;-69
2021/09/13 09:45:27;;;;;;;5.60;1.30;;;;;;;;;;5043470;28;20449;-71
2021/09/13 09:48:09;;;;;;;8.37;1.80;;;;;;;;;;5046334;28;20493;-70
2021/09/13 09:50:42;;;;;;;4.27;1.20;;;;;;;;;;5038345;28;20458;-70
2021/09/13 09:53:21;;;;;;;4.80;1.90;;;;;;;;;;5040057;28;20537;-72
2021/09/13 09:55:58;;;;;;;3.47;1.50;;;;;;;;;;5046943;28;20452;-70
2021/09/13 09:58:28;;;;;;;5.50;1.13;;;;;;;;;;5039818;28;20481;-71
2021/09/13 10:00:59;;;;;;;3.30;1.20;;;;;;;;;;5045633;28;20537;-71
2021/09/13 10:03:34;;;;;;;3.20;1.87;;;;;;;;;;5047412;28;20449;-71
2021/09/13 10:06:03;;;;;;;4.80;1.93;;;;;;;;;;5047383;28;20480;-71
2021/09/13 10:08:38;;;;;;;5.47;3.13;;;;;;;;;;5055732;28;20461;-69
2021/09/13 10:11:06;;;;;;;3.17;1.73;;;;;;;;;;5057227;28;20457;-72
2021/09/13 10:13:40;;;;;;;4.83;1.23;;;;;;;;;;5038862;28;20468;-71
2021/09/13 10:16:22;;;;;;;4.87;2.23;;;;;;;;;;5044484;28;20553;-71
2021/09/13 10:18:58;;;;;;;1.70;0.93;;;;;;;;;;5036745;28;20470;-72
2021/09/13 10:21:26;;;;;;;1.80;0.80;;;;;;;;;;5036333;28;20469;-71
2021/09/13 10:23:57;;;;;;;3.00;1.17;;;;;;;;;;5056948;28;20472;-71
2021/09/13 10:26:26;;;;;;;1.90;0.87;;;;;;;;;;5050025;28;20582;-71
2021/09/13 10:29:11;;;;;;;2.43;1.23;;;;;;;;;;5052322;28;20474;-71
2021/09/13 10:31:54;;;;;;;1.90;0.93;;;;;;;;;;5033182;28;20908;-71
2021/09/13 10:34:23;;;;;;;4.03;1.47;;;;;;;;;;5041077;28;20472;-71
2021/09/13 10:37:16;;;;;;;4.20;2.03;;;;;;;;;;5054002;28;20461;-71
2021/09/13 10:39:55;;;;;;;3.50;1.23;;;;;;;;;;5046821;28;20466;-70
2021/09/13 10:42:33;;;;;;;2.53;1.20;;;;;;;;;;5054886;28;20853;-71
2021/09/13 10:45:09;;;;;;;3.37;1.10;;;;;;;;;;5052260;28;20920;-71
2021/09/13 10:47:37;;;;;;;2.67;1.43;;;;;;;;;;5036514;28;20482;-71
2021/09/13 10:50:18;;;;;;;2.10;0.70;;;;;;;;;;5035684;28;20952;-71
2021/09/13 10:52:46;;;;;;;3.20;1.00;;;;;;;;;;5051044;28;21050;-71
2021/09/13 10:55:21;;;;;;;2.63;0.90;;;;;;;;;;5040528;28;20560;-71
2021/09/13 10:58:04;;;;;;;4.43;1.13;;;;;;;;;;5035660;28;20461;-70
2021/09/13 11:00:53;;;;;;;1.87;0.90;;;;;;;;;;5039745;28;20496;-71
2021/09/13 11:03:39;;;;;;;2.33;0.87;;;;;;;;;;5039684;28;20461;-71
2021/09/13 11:06:25;;;;;;;2.03;0.90;;;;;;;;;;5044083;28;20449;-72
2021/09/13 11:08:56;;;;;;;2.90;1.63;;;;;;;;;;5051021;28;20531;-72
2021/09/13 11:11:27;;;;;;;4.20;1.40;;;;;;;;;;5041315;28;20457;-71
2021/09/13 11:13:59;;;;;;;3.00;1.67;;;;;;;;;;5053314;28;20535;-72
2021/09/13 11:16:27;;;;;;;3.87;1.80;;;;;;;;;;5054826;28;20553;-71
2021/09/13 11:18:56;;;;;;;3.20;1.10;;;;;;;;;;5055355;28;20515;-72
2021/09/13 11:21:24;;;;;;;3.33;1.20;;;;;;;;;;5048502;28;20548;-73
2021/09/13 11:23:53;;;;;;;2.73;1.30;;;;;;;;;;5055210;28;20457;-72
2021/09/13 11:26:31;;;;;;;6.60;1.43;;;;;;;;;;5045789;28;20497;-71
2021/09/13 11:29:02;;;;;;;3.23;1.20;;;;;;;;;;5034049;28;20462;-72
2021/09/13 11:31:33;;;;;;;3.10;1.73;;;;;;;;;;5034978;28;20489;-71
2021/09/13 11:34:02;;;;;;;4.27;1.40;;;;;;;;;;5034043;28;20462;-72
2021/09/13 11:36:32;;;;;;;5.43;0.90;;;;;;;;;;5037099;28;20469;-71
2021/09/13 11:39:01;;;;;;;2.00;1.50;;;;;;;;;;5040406;28;20851;-71
2021/09/13 11:41:30;;;;;;;4.50;1.37;;;;;;;;;;5053480;28;20488;-71
2021/09/13 11:44:04;;;;;;;3.00;1.67;;;;;;;;;;5054363;28;20548;-71
2021/09/13 11:46:52;;;;;;;4.40;1.60;;;;;;;;;;5042942;28;20550;-71
2021/09/13 11:49:32;;;;;;;2.60;1.07;;;;;;;;;;5041416;28;20469;-72
2021/09/13 11:52:01;;;;;;;4.20;1.43;;;;;;;;;;5044016;28;20454;-71
2021/09/13 11:54:30;;;;;;;2.63;1.30;;;;;;;;;;5051273;28;20531;-72
2021/09/13 11:57:04;;;;;;;3.73;1.97;;;;;;;;;;5054838;28;20453;-72
2021/09/13 11:59:33;;;;;;;3.50;1.13;;;;;;;;;;5036237;28;20536;-71
2021/09/13 12:02:05;;;;;;;1.80;1.00;;;;;;;;;;5033347;28;20520;-71
2021/09/13 12:04:37;;;;;;;2.37;1.10;;;;;;;;;;5037175;28;20560;-72
2021/09/13 12:14:11;;;;;;;6.40;1.40;;;;;;;;;;4969288;28;20627;-72
2021/09/13 12:16:54;;;;;;;2.67;1.20;;;;;;;;;;4973904;28;20837;-72
2021/09/13 12:22:15;;;;;;;3.83;1.13;;;;;;;;;;5021225;28;20460;-72
2021/09/13 12:28:03;;;;;;;2.80;1.00;;;;;;;;;;5053187;28;20479;-72
2021/09/13 12:30:38;;;;;;;4.73;1.37;;;;;;;;;;5051958;28;20889;-72
2021/09/13 12:33:07;;;;;;;1.90;1.10;;;;;;;;;;5035295;28;20454;-71
2021/09/13 12:35:42;;;;;;;3.13;1.40;;;;;;;;;;5042371;28;20536;-72
2021/09/13 12:38:18;;;;;;;2.37;1.00;;;;;;;;;;5056060;28;20503;-72
2021/09/13 12:41:09;;;;;;;4.80;1.17;;;;;;;;;;5054292;28;20546;-72
2021/09/13 12:43:47;;;;;;;1.93;1.07;;;;;;;;;;5046518;28;20794;-72
2021/09/13 12:46:29;;;;;;;2.37;1.13;;;;;;;;;;5036133;28;20945;-72
2021/09/13 12:49:13;;;;;;;2.20;1.00;;;;;;;;;;5036548;28;20454;-73
2021/09/13 12:52:05;;;;;;;3.87;1.23;;;;;;;;;;5033979;28;20529;-72
2021/09/13 12:54:40;;;;;;;2.80;1.10;;;;;;;;;;5034689;28;20457;-74
2021/09/13 12:57:13;;;;;;;3.70;1.40;;;;;;;;;;5052377;28;20467;-72
2021/09/13 12:59:45;;;;;;;4.50;1.20;;;;;;;;;;5042710;28;20811;-73
2021/09/13 13:02:19;;;;;;;2.53;0.93;;;;;;;;;;5050594;28;20456;-73
2021/09/13 13:04:57;;;;;;;6.90;3.70;;;;;;;;;;5049799;28;20527;-72
2021/09/13 13:07:27;;;;;;;4.03;1.03;;;;;;;;;;5037002;28;20477;-72
2021/09/13 13:09:56;;;;;;;3.93;1.07;;;;;;;;;;5055535;28;20790;-71
2021/09/13 13:12:25;;;;;;;5.13;1.47;;;;;;;;;;5059982;28;20587;-73
2021/09/13 13:14:59;;;;;;;5.40;1.30;;;;;;;;;;5059631;28;20456;-73
2021/09/13 13:17:41;;;;;;;2.97;1.00;;;;;;;;;;5048709;28;20469;-72
2021/09/13 13:20:14;;;;;;;2.90;1.10;;;;;;;;;;5034105;28;20874;-72
2021/09/13 13:22:44;;;;;;;4.10;1.33;;;;;;;;;;5034041;28;20454;-71
2021/09/13 13:25:13;;;;;;;3.00;1.20;;;;;;;;;;5070606;28;20551;-72
2021/09/13 13:27:40;;;;;;;5.90;1.40;;;;;;;;;;5064706;28;21179;-71
2021/09/13 13:30:09;;;;;;;6.67;1.90;;;;;;;;;;5064288;28;20453;-71
2021/09/13 13:32:37;;;;;;;6.40;1.40;;;;;;;;;;5044892;28;20456;-71
2021/09/13 13:35:14;;;;;;;2.37;1.47;;;;;;;;;;5057047;28;20471;-72
2021/09/13 13:37:42;;;;;;;4.70;2.87;;;;;;;;;;5066867;28;20460;-72
2021/09/13 13:40:15;;;;;;;3.20;1.00;;;;;;;;;;5055139;28;20752;-72
2021/09/13 13:42:43;;;;;;;5.57;2.47;;;;;;;;;;5056027;28;20499;-71
2021/09/13 13:45:12;;;;;;;3.63;1.30;;;;;;;;;;5054336;28;20469;-72
2021/09/13 13:47:43;;;;;;;2.27;1.23;;;;;;;;;;5060922;28;20473;-72
2021/09/13 13:50:14;;;;;;;6.13;1.87;;;;;;;;;;5056803;28;20491;-72
2021/09/13 13:52:47;;;;;;;3.00;1.33;;;;;;;;;;5059563;28;20453;-72
2021/09/13 13:55:41;;;;;;;5.53;1.70;;;;;;;;;;5058656;28;20457;-71
2021/09/13 13:58:39;;;;;;;4.27;1.13;;;;;;;;;;5055868;28;20469;-71
2021/09/13 14:01:30;;;;;;;;;;;;;;;;;;;;;
2021/09/13 14:04:05;;;;;;;5.40;1.83;;;;;;;;;;5038990;28;20893;-72
2021/09/13 14:09:36;;;;;;;2.90;1.20;;;;;;;;;;5053551;28;20899;-72
2021/09/13 14:12:15;;;;;;;5.33;2.10;;;;;;;;;;5040657;28;20500;-71
2021/09/13 14:14:48;;;;;;;2.33;1.20;;;;;;;;;;5055040;28;20814;-72
2021/09/13 14:17:17;;;;;;;3.00;1.93;;;;;;;;;;5045825;28;20470;-71
2021/09/13 14:19:47;;;;;;;2.60;1.80;;;;;;;;;;5042091;28;20461;-71
2021/09/13 14:25:29;;;;;;;4.00;2.77;;;;;;;;;;5141508;27;20541;-71
2021/09/13 14:28:00;;;;;;;3.50;1.40;;;;;;;;;;5127642;27;21030;-72
2021/09/13 14:30:59;;;;;;;2.70;1.27;;;;;;;;;;5131564;27;20452;-72
2021/09/13 14:33:28;;;;;;;3.30;1.03;;;;;;;;;;5119269;27;20454;-71
2021/09/13 14:36:07;;;;;;;3.83;1.40;;;;;;;;;;5111119;28;20582;-71
2021/09/13 14:38:36;;;;;;;4.23;2.20;;;;;;;;;;5123435;27;20892;-71
2021/09/13 14:41:11;;;;;;;3.20;1.23;;;;;;;;;;5127865;27;20494;-71
2021/09/13 14:43:41;;;;;;;2.87;1.37;;;;;;;;;;5128379;27;20532;-71
2021/09/13 14:46:17;;;;;;;3.13;1.27;;;;;;;;;;5128623;27;20551;-72
2021/09/13 14:48:45;;;;;;;4.93;2.73;;;;;;;;;;5112643;27;20535;-70
2021/09/13 14:51:14;;;;;;;5.43;1.57;;;;;;;;;;5112271;28;20457;-72
2021/09/13 14:53:42;;;;;;;6.30;1.27;;;;;;;;;;5124724;27;20442;-72
2021/09/13 14:56:14;;;;;;;3.17;1.70;;;;;;;;;;5117185;27;20880;-72
2021/09/13 14:58:42;;;;;;;4.23;1.80;;;;;;;;;;5111750;28;20442;-72
2021/09/13 15:03:55;;;;;;;4.27;1.30;;;;;;;;;;5118606;27;20482;-72
2021/09/13 15:06:24;;;;;;;2.97;0.90;;;;;;;;;;5112506;28;20466;-71
2021/09/13 15:08:54;;;;;;;8.80;1.50;;;;;;;;;;5120251;27;20450;-71
2021/09/13 15:11:24;;;;;;;4.73;1.57;;;;;;;;;;5132908;27;20465;-71
2021/09/13 15:13:54;;;;;;;3.60;1.40;;;;;;;;;;5131843;27;20477;-71
2021/09/13 15:16:23;;;;;;;3.17;1.90;;;;;;;;;;5122541;27;20528;-71
2021/09/13 15:18:51;;;;;;;4.20;1.30;;;;;;;;;;5110287;28;20899;-71
2021/09/13 15:21:21;;;;;;;5.73;1.90;;;;;;;;;;5109501;28;20947;-71
2021/09/13 15:23:52;;;;;;;3.53;1.57;;;;;;;;;;5109414;28;20478;-71
2021/09/13 15:26:21;;;;;;;4.80;2.57;;;;;;;;;;5108480;28;20451;-70
2021/09/13 15:28:50;;;;;;;8.00;1.70;;;;;;;;;;5117521;28;20442;-71
2021/09/13 15:31:22;;;;;;;2.90;1.10;;;;;;;;;;5131172;28;20549;-72
2021/09/13 15:33:53;;;;;;;5.53;2.13;;;;;;;;;;5129381;27;20830;-72
2021/09/13 15:36:23;;;;;;;2.87;1.40;;;;;;;;;;5103625;27;20617;-72